Time;durP1;ratioP1;P1;durP2;ratioP2;P2;SDS_P1;SDS_P2;PMS_P1;PMS_P2;Temp;Humidity;BMP_temperature;BMP_pressure;BME280_temperature;BME280_humidity;BME280_pressure;Samples;Min_cycle;Max_cycle;Signal;HPM_P1;HPM_P2
2023/07/11 00:00:17;;;;;;;4.45;1.60;;;;;;;26.52;35.95;98680.72;5043778;28;20071;-69
2023/07/11 00:02:48;;;;;;;3.47;1.40;;;;;;;26.57;35.95;98680.69;5060017;28;20043;-69
2023/07/11 00:05:16;;;;;;;;;;;;;;;26.79;35.38;98673.72;5044250;28;20048;-69
2023/07/11 00:07:44;;;;;;;3.47;1.67;;;;;;;26.52;35.92;98668.72;5059950;28;20302;-69
2023/07/11 00:10:13;;;;;;;2.30;2.10;;;;;;;26.43;36.07;98667.72;5042072;28;20110;-69
2023/07/11 00:12:40;;;;;;;5.50;1.50;;;;;;;26.28;36.10;98670.56;5015563;28;20170;-69
2023/07/11 00:15:09;;;;;;;4.35;1.80;;;;;;;26.30;36.02;98665.66;4999694;28;20396;-69
2023/07/11 00:17:36;;;;;;;3.95;1.80;;;;;;;26.28;36.03;98654.22;4941732;28;20070;-69
2023/07/11 00:20:08;;;;;;;5.00;1.58;;;;;;;26.35;35.79;98653.91;4941265;28;20465;-69
2023/07/11 00:22:35;;;;;;;3.38;1.58;;;;;;;26.14;35.92;98661.38;4975890;28;20057;-69
2023/07/11 00:25:04;;;;;;;2.47;1.73;;;;;;;26.39;36.16;98655.78;4976454;28;20058;-69
2023/07/11 00:27:31;;;;;;;2.63;1.75;;;;;;;26.23;35.84;98656.16;4992488;28;20502;-68
2023/07/11 00:29:58;;;;;;;4.57;1.70;;;;;;;26.12;36.24;98660.06;4960928;28;20149;-69
2023/07/11 00:32:25;;;;;;;3.42;1.55;;;;;;;26.03;36.21;98665.25;4961192;28;20149;-69
2023/07/11 00:34:51;;;;;;;3.70;1.33;;;;;;;26.10;35.88;98662.22;4994109;28;20104;-69
2023/07/11 00:37:17;;;;;;;6.35;2.13;;;;;;;26.03;36.03;98659.81;4929494;28;20148;-69
2023/07/11 00:39:43;;;;;;;6.32;1.45;;;;;;;26.16;36.10;98655.66;4960293;28;20046;-69
2023/07/11 00:42:10;;;;;;;3.95;1.50;;;;;;;26.08;36.12;98664.41;4944446;28;20439;-69
2023/07/11 00:45:11;;;;;;;2.92;1.40;;;;;;;26.28;35.79;98654.22;4944500;28;20057;-69
2023/07/11 00:47:37;;;;;;;2.38;1.50;;;;;;;25.99;36.04;98658.75;4943990;28;20145;-69
2023/07/11 00:50:07;;;;;;;4.07;1.50;;;;;;;26.18;36.12;98665.19;5019464;28;20157;-69
2023/07/11 00:52:38;;;;;;;6.72;1.30;;;;;;;26.22;36.28;98663.50;5027035;28;20065;-70
2023/07/11 00:55:10;;;;;;;4.75;1.77;;;;;;;26.16;36.13;98661.94;5062193;28;20055;-69
2023/07/11 00:57:39;;;;;;;2.10;1.10;;;;;;;26.21;35.72;98659.19;5042308;28;20052;-69
2023/07/11 01:00:08;;;;;;;2.63;1.45;;;;;;;26.10;35.72;98660.34;5042726;28;20138;-69
2023/07/11 01:02:37;;;;;;;4.03;1.50;;;;;;;26.15;35.88;98656.75;5059918;28;20116;-69
2023/07/11 01:05:03;;;;;;;7.60;1.52;;;;;;;25.99;35.95;98660.66;5026491;28;20464;-69
2023/07/11 01:07:35;;;;;;;3.65;1.52;;;;;;;26.21;35.71;98666.53;5059719;28;20200;-69
2023/07/11 01:10:03;;;;;;;2.00;1.38;;;;;;;26.07;35.68;98658.19;5075398;28;20117;-69
2023/07/11 01:12:34;;;;;;;1.60;1.30;;;;;;;26.07;35.59;98660.06;5059605;28;20036;-68
2023/07/11 01:15:00;;;;;;;2.92;1.38;;;;;;;25.94;35.42;98653.31;5043072;28;20044;-69
2023/07/11 01:17:33;;;;;;;1.58;1.30;;;;;;;26.20;35.50;98657.53;5043816;28;20143;-69
2023/07/11 01:20:02;;;;;;;1.70;1.20;;;;;;;26.08;35.62;98658.97;5024710;28;20471;-69
2023/07/11 01:22:33;;;;;;;2.78;1.25;;;;;;;26.09;35.71;98658.69;5060586;28;20055;-69
2023/07/11 01:25:09;;;;;;;4.07;1.15;;;;;;;26.24;35.48;98652.34;5058779;28;20044;-69
2023/07/11 01:27:37;;;;;;;1.45;1.10;;;;;;;26.06;35.62;98670.13;5041029;28;20518;-69
2023/07/11 01:30:07;;;;;;;1.65;1.35;;;;;;;26.19;35.86;98666.81;5041466;28;20044;-69
2023/07/11 01:32:34;;;;;;;;;;;;;;;26.47;34.93;98670.69;5075194;28;20064;-69
2023/07/11 01:35:02;;;;;;;4.15;1.23;;;;;;;25.95;35.58;98652.22;5024621;28;19916;-69
2023/07/11 01:37:32;;;;;;;2.50;1.52;;;;;;;26.24;35.61;98674.13;5042160;28;20047;-69
2023/07/11 01:39:58;;;;;;;4.78;1.42;;;;;;;25.93;35.60;98665.28;5024971;28;20044;-69
2023/07/11 01:42:27;;;;;;;3.55;1.50;;;;;;;26.05;35.74;98663.06;5041761;28;20051;-70
2023/07/11 01:44:52;;;;;;;2.25;1.67;;;;;;;25.81;35.57;98664.81;5001490;28;20160;-69
2023/07/11 01:47:19;;;;;;;5.57;1.60;;;;;;;25.96;35.89;98661.19;5018655;28;20556;-70
2023/07/11 01:49:46;;;;;;;5.10;1.95;;;;;;;25.89;35.52;98661.50;5037586;28;20661;-69
2023/07/11 01:52:14;;;;;;;4.95;1.80;;;;;;;26.20;35.47;98671.13;5021027;28;20142;-69
2023/07/11 01:54:40;;;;;;;4.80;1.85;;;;;;;25.96;35.45;98658.47;5013936;28;20107;-69
2023/07/11 01:57:07;;;;;;;4.35;1.98;;;;;;;26.04;35.61;98672.34;4981622;28;20049;-69
2023/07/11 01:59:35;;;;;;;4.03;1.85;;;;;;;26.09;35.65;98661.41;4982132;28;20493;-69
2023/07/11 02:02:03;;;;;;;5.50;2.80;;;;;;;26.05;35.55;98659.53;4982012;28;20056;-69
2023/07/11 02:04:30;;;;;;;19.60;2.47;;;;;;;26.01;35.67;98648.41;4997823;28;20049;-69
2023/07/11 02:06:57;;;;;;;2.22;1.98;;;;;;;25.93;35.48;98657.13;4949796;28;20111;-69
2023/07/11 02:09:24;;;;;;;2.95;2.03;;;;;;;26.21;35.62;98667.34;4997699;28;20049;-69
2023/07/11 02:11:51;;;;;;;4.70;2.05;;;;;;;26.09;35.41;98655.97;5013953;28;20057;-69
2023/07/11 02:14:20;;;;;;;3.88;1.92;;;;;;;26.32;35.33;98663.44;4981495;28;20151;-69
2023/07/11 02:16:48;;;;;;;4.82;2.10;;;;;;;26.26;35.14;98661.06;4981583;28;20107;-69
2023/07/11 02:19:21;;;;;;;3.85;2.30;;;;;;;26.40;35.25;98667.50;4997413;28;20125;-69
2023/07/11 02:21:47;;;;;;;8.90;2.45;;;;;;;26.04;35.40;98664.19;4986761;28;20111;-69
2023/07/11 02:24:15;;;;;;;2.65;2.40;;;;;;;26.19;35.37;98663.25;5016774;28;20136;-69
2023/07/11 02:26:41;;;;;;;5.05;2.85;;;;;;;26.12;35.36;98665.50;5072524;28;20609;-68
2023/07/11 02:29:08;;;;;;;4.80;2.80;;;;;;;26.22;35.47;98668.13;5060087;28;20035;-69
2023/07/11 02:31:35;;;;;;;3.13;2.72;;;;;;;26.24;35.10;98653.16;5043429;28;20532;-69
2023/07/11 02:34:01;;;;;;;5.68;3.05;;;;;;;26.12;35.06;98669.00;5040829;28;20048;-69
2023/07/11 02:36:30;;;;;;;3.78;2.88;;;;;;;26.16;35.32;98664.66;5057922;28;20109;-69
2023/07/11 02:38:57;;;;;;;4.75;2.70;;;;;;;26.00;35.35;98670.47;5025790;28;20048;-69
2023/07/11 02:41:24;;;;;;;5.50;2.58;;;;;;;25.89;35.71;98666.94;5057694;28;20541;-68
2023/07/11 02:43:50;;;;;;;3.78;2.30;;;;;;;25.81;35.94;98669.44;5040101;28;20086;-69
2023/07/11 02:46:17;;;;;;;4.97;2.50;;;;;;;25.92;35.98;98660.97;5060806;28;20052;-69
2023/07/11 02:48:45;;;;;;;2.72;2.50;;;;;;;26.07;36.09;98665.53;5028007;28;20379;-69
2023/07/11 02:51:11;;;;;;;7.45;2.40;;;;;;;26.02;36.09;98655.47;5040630;28;20058;-69
2023/07/11 02:53:38;;;;;;;7.50;1.90;;;;;;;25.94;35.67;98666.91;5007503;28;20052;-69
2023/07/11 02:56:04;;;;;;;2.88;1.67;;;;;;;26.07;35.96;98669.06;5007497;28;20049;-68
2023/07/11 02:58:30;;;;;;;2.15;1.50;;;;;;;25.98;36.08;98664.44;5040698;28;20052;-70
2023/07/11 03:00:59;;;;;;;1.92;1.58;;;;;;;26.07;36.19;98674.50;5040470;28;20049;-69
2023/07/11 03:03:28;;;;;;;4.07;1.63;;;;;;;26.02;36.04;98673.69;5040493;28;20079;-68
2023/07/11 03:05:55;;;;;;;4.35;1.33;;;;;;;25.99;36.08;98671.53;5040844;28;20480;-68
2023/07/11 03:08:22;;;;;;;9.32;1.70;;;;;;;25.99;36.00;98672.38;5040238;28;20044;-69
2023/07/11 03:10:48;;;;;;;8.32;1.40;;;;;;;25.97;36.08;98674.50;5007375;28;20048;-69
2023/07/11 03:13:18;;;;;;;2.67;1.27;;;;;;;26.32;35.92;98670.81;5040393;28;20060;-69
2023/07/11 03:15:46;;;;;;;2.72;1.13;;;;;;;26.26;35.79;98677.38;5036688;28;20056;-68
2023/07/11 03:18:15;;;;;;;3.47;1.10;;;;;;;26.20;35.70;98673.06;5037451;28;20511;-69
2023/07/11 03:20:42;;;;;;;1.98;0.93;;;;;;;26.20;35.41;98671.13;5020302;28;20148;-68
2023/07/11 03:23:11;;;;;;;3.88;1.30;;;;;;;26.23;35.25;98650.72;5023526;28;20064;-69
2023/07/11 03:25:37;;;;;;;2.90;1.20;;;;;;;26.11;35.14;98655.69;5039975;28;20074;-69
2023/07/11 03:28:05;;;;;;;1.40;1.10;;;;;;;26.37;35.10;98668.84;5041208;28;20146;-69
2023/07/11 03:30:35;;;;;;;1.08;0.95;;;;;;;26.39;34.99;98663.13;5007490;28;20122;-68
2023/07/11 03:33:02;;;;;;;2.10;1.10;;;;;;;26.39;34.94;98661.22;5036697;28;20091;-70
2023/07/11 03:35:31;;;;;;;1.45;1.10;;;;;;;26.40;34.80;98665.56;5036791;28;20495;-68
2023/07/11 03:37:58;;;;;;;1.83;0.90;;;;;;;26.41;34.30;98659.03;5037108;28;20534;-69
2023/07/11 03:40:25;;;;;;;2.15;1.00;;;;;;;26.55;34.46;98664.66;5020782;28;20053;-69
2023/07/11 03:42:51;;;;;;;3.22;0.95;;;;;;;26.54;34.00;98667.66;5021070;28;20044;-69
2023/07/11 03:45:20;;;;;;;3.40;0.93;;;;;;;26.75;34.03;98675.41;5037096;28;20147;-69
2023/07/11 03:47:46;;;;;;;3.22;1.00;;;;;;;26.66;33.78;98670.84;5036210;28;20057;-69
2023/07/11 03:50:11;;;;;;;1.80;1.00;;;;;;;26.75;33.88;98675.41;4987850;28;20045;-69
2023/07/11 03:52:40;;;;;;;1.75;0.98;;;;;;;26.94;33.23;98678.25;4998977;28;20048;-69
2023/07/11 03:55:08;;;;;;;0.90;0.60;;;;;;;26.99;33.27;98679.00;5041577;28;20064;-69
2023/07/11 03:57:35;;;;;;;2.55;0.98;;;;;;;26.93;33.40;98671.13;5031774;28;20049;-69
2023/07/11 04:00:01;;;;;;;4.35;1.00;;;;;;;26.86;33.40;98660.59;5016664;28;20045;-69
2023/07/11 04:02:30;;;;;;;3.55;0.98;;;;;;;26.99;33.17;98670.81;5016471;28;20381;-69
2023/07/11 04:04:58;;;;;;;3.50;1.10;;;;;;;27.20;33.13;98666.78;4983814;28;20187;-69
2023/07/11 04:07:24;;;;;;;3.58;1.10;;;;;;;27.03;33.39;98671.06;5015765;28;20560;-69
2023/07/11 04:09:50;;;;;;;2.03;1.13;;;;;;;27.07;33.03;98651.13;4986844;28;20055;-69
2023/07/11 04:12:16;;;;;;;4.70;1.20;;;;;;;26.98;33.63;98662.94;5002690;28;20063;-69
2023/07/11 04:14:43;;;;;;;2.28;1.05;;;;;;;27.25;32.96;98668.63;5019223;28;20049;-69
2023/07/11 04:17:13;;;;;;;4.57;1.10;;;;;;;27.24;33.16;98650.66;4986175;28;20049;-69
2023/07/11 04:19:43;;;;;;;;;;;;;;;27.51;32.91;98668.09;4987673;28;20045;-69
2023/07/11 04:22:09;;;;;;;3.88;1.33;;;;;;;27.27;32.92;98666.47;5035488;28;19924;-68
2023/07/11 04:24:36;;;;;;;2.22;1.40;;;;;;;27.24;32.95;98669.75;5003189;28;20041;-72
2023/07/11 04:27:02;;;;;;;2.90;1.40;;;;;;;27.24;32.81;98667.84;5019333;28;20188;-69
2023/07/11 04:29:29;;;;;;;4.38;1.40;;;;;;;27.28;32.85;98671.63;5054137;28;20063;-68
2023/07/11 04:31:55;;;;;;;1.95;1.30;;;;;;;27.16;32.79;98663.00;5042737;28;20048;-69
2023/07/11 04:34:20;;;;;;;6.05;2.38;;;;;;;27.26;32.84;98675.75;5043027;28;20074;-68
2023/07/11 04:36:47;;;;;;;4.38;2.33;;;;;;;27.31;32.83;98671.06;5043179;28;20387;-69
2023/07/11 04:39:13;;;;;;;6.45;2.10;;;;;;;27.31;32.89;98668.31;5043304;28;20040;-69
2023/07/11 04:41:40;;;;;;;3.67;1.63;;;;;;;27.25;32.88;98655.84;5061659;28;20047;-69
2023/07/11 04:44:06;;;;;;;2.47;1.25;;;;;;;27.33;33.27;98665.31;5038396;28;20056;-72
2023/07/11 04:46:32;;;;;;;1.75;1.15;;;;;;;27.28;33.14;98662.63;5038904;28;20399;-69
2023/07/11 04:48:57;;;;;;;5.18;1.40;;;;;;;27.15;33.24;98657.84;5021735;28;20488;-69
2023/07/11 04:51:24;;;;;;;3.45;1.48;;;;;;;27.21;33.31;98660.25;5054747;28;20060;-69
2023/07/11 04:53:51;;;;;;;5.00;1.38;;;;;;;27.16;33.57;98645.84;5005455;28;20048;-69
2023/07/11 04:56:17;;;;;;;4.47;1.10;;;;;;;27.22;33.26;98658.31;5038156;28;20048;-69
2023/07/11 04:58:43;;;;;;;2.80;0.90;;;;;;;27.29;32.59;98662.34;5021552;28;20063;-69
2023/07/11 05:01:12;;;;;;;2.45;0.85;;;;;;;27.52;32.16;98658.00;5005227;28;20098;-69
2023/07/11 05:03:40;;;;;;;1.13;0.65;;;;;;;27.23;32.03;98649.03;5021647;28;20045;-69
2023/07/11 05:06:07;;;;;;;3.33;0.90;;;;;;;27.18;32.10;98658.09;5054676;28;20408;-68
2023/07/11 05:08:34;;;;;;;4.38;0.70;;;;;;;27.07;32.12;98648.38;5021097;28;20143;-69
2023/07/11 05:11:03;;;;;;;1.73;0.85;;;;;;;27.05;31.76;98655.22;4978779;28;20042;-69
2023/07/11 05:13:31;;;;;;;2.95;0.75;;;;;;;27.18;31.78;98646.38;4947029;28;20061;-68
2023/07/11 05:16:05;;;;;;;1.95;0.70;;;;;;;27.29;31.44;98656.09;4993787;28;20186;-69
2023/07/11 05:18:34;;;;;;;2.50;0.80;;;;;;;27.12;31.72;98648.34;5001695;28;20098;-68
2023/07/11 05:21:00;;;;;;;2.65;0.63;;;;;;;27.09;31.44;98653.56;4985656;28;20500;-69
2023/07/11 05:23:28;;;;;;;1.95;0.80;;;;;;;27.55;31.14;98643.78;4985128;28;20140;-69
2023/07/11 05:25:56;;;;;;;1.15;0.82;;;;;;;27.45;31.13;98642.00;5018155;28;20132;-69
2023/07/11 05:28:26;;;;;;;2.08;0.70;;;;;;;27.64;31.20;98644.75;5001614;28;20056;-68
2023/07/11 05:30:53;;;;;;;1.27;0.70;;;;;;;27.53;31.13;98645.97;4970270;28;20063;-69
2023/07/11 05:33:20;;;;;;;2.38;1.30;;;;;;;27.39;31.07;98648.59;5001792;28;20082;-69
2023/07/11 05:38:56;;;;;;;1.67;0.65;;;;;;;27.88;30.18;98648.28;5035029;28;20144;-69
2023/07/11 05:41:22;;;;;;;0.82;0.60;;;;;;;27.95;29.82;98648.75;5014281;28;20151;-69
2023/07/11 05:43:48;;;;;;;3.83;0.80;;;;;;;28.09;29.78;98648.81;5041337;28;20138;-69
2023/07/11 05:46:16;;;;;;;1.33;0.85;;;;;;;28.24;29.91;98646.69;5023989;28;20479;-69
2023/07/11 05:48:42;;;;;;;3.05;0.90;;;;;;;27.99;30.04;98641.59;5040713;28;20044;-69
2023/07/11 05:51:10;;;;;;;2.80;0.82;;;;;;;28.38;29.67;98647.56;5040847;28;20052;-69
2023/07/11 05:53:38;;;;;;;1.08;0.80;;;;;;;28.35;29.73;98644.59;5073994;28;20112;-69
2023/07/11 05:56:05;;;;;;;4.78;1.00;;;;;;;28.54;29.40;98646.22;5069462;28;20047;-68
2023/07/11 05:58:32;;;;;;;3.20;1.00;;;;;;;28.54;29.22;98639.97;5040436;28;20052;-68
2023/07/11 06:00:58;;;;;;;0.90;0.75;;;;;;;28.37;29.54;98643.19;5024221;28;20052;-69
2023/07/11 06:03:27;;;;;;;1.27;0.75;;;;;;;28.46;29.48;98630.47;5040619;28;20040;-69
2023/07/11 06:05:58;;;;;;;2.83;0.85;;;;;;;28.57;29.38;98631.97;5057169;28;20101;-69
2023/07/11 06:08:24;;;;;;;5.55;1.73;;;;;;;28.29;29.76;98629.41;5008281;28;20135;-69
2023/07/11 06:10:51;;;;;;;3.22;1.10;;;;;;;28.53;29.32;98641.88;5041550;28;20138;-69
2023/07/11 06:13:18;;;;;;;1.92;0.70;;;;;;;28.69;29.11;98626.84;5024072;28;20065;-69
2023/07/11 06:15:44;;;;;;;1.23;0.70;;;;;;;28.71;29.11;98624.63;5076034;28;20113;-70
2023/07/11 06:18:10;;;;;;;1.65;0.88;;;;;;;28.76;28.76;98624.53;5059041;28;20044;-68
2023/07/11 06:20:38;;;;;;;4.75;1.10;;;;;;;28.78;28.80;98630.53;5041087;28;20054;-69
2023/07/11 06:23:03;;;;;;;2.20;1.10;;;;;;;28.84;28.83;98632.06;5056261;28;20055;-69
2023/07/11 06:25:29;;;;;;;3.20;0.90;;;;;;;29.00;28.45;98629.88;5039955;28;20052;-68
2023/07/11 06:27:55;;;;;;;4.00;0.77;;;;;;;29.06;28.17;98624.00;5039901;28;20580;-68
2023/07/11 06:30:22;;;;;;;3.08;0.70;;;;;;;29.15;28.19;98632.34;5039928;28;20039;-68
2023/07/11 06:32:49;;;;;;;1.30;0.70;;;;;;;29.13;28.01;98623.63;5040297;28;20058;-70
2023/07/11 06:35:15;;;;;;;1.88;0.60;;;;;;;29.05;28.31;98619.66;5057703;28;20166;-69
2023/07/11 06:37:40;;;;;;;0.90;0.70;;;;;;;29.10;28.20;98614.09;5041524;28;20472;-69
2023/07/11 06:40:08;;;;;;;4.07;1.17;;;;;;;29.02;28.33;98616.69;5040839;28;20514;-69
2023/07/11 06:42:34;;;;;;;0.90;0.70;;;;;;;28.93;28.37;98608.38;5057015;28;20040;-69
2023/07/11 06:45:00;;;;;;;3.72;1.10;;;;;;;29.00;28.46;98608.78;5056451;28;20055;-69
2023/07/11 06:47:27;;;;;;;3.78;1.05;;;;;;;28.94;28.45;98614.63;5013035;28;20116;-69
2023/07/11 06:49:54;;;;;;;2.78;0.90;;;;;;;28.90;28.48;98611.72;5013390;28;20098;-69
2023/07/11 06:52:20;;;;;;;2.20;0.73;;;;;;;28.87;28.46;98615.06;5013246;28;20045;-69
2023/07/11 06:54:47;;;;;;;6.45;1.00;;;;;;;28.82;28.40;98611.59;5016735;28;20049;-69
2023/07/11 06:57:17;;;;;;;6.18;1.42;;;;;;;28.82;28.95;98606.94;5016141;28;20365;-70
2023/07/11 06:59:47;;;;;;;2.10;1.00;;;;;;;28.99;28.63;98612.63;5001010;28;20131;-69
2023/07/11 07:02:15;;;;;;;3.00;1.02;;;;;;;29.09;28.40;98606.22;5016745;28;20049;-69
2023/07/11 07:04:41;;;;;;;3.90;1.25;;;;;;;29.05;28.24;98605.13;5017068;28;20049;-69
2023/07/11 07:07:08;;;;;;;2.38;0.80;;;;;;;29.33;28.31;98610.38;5000121;28;20080;-69
2023/07/11 07:09:34;;;;;;;4.28;1.00;;;;;;;29.10;28.33;98616.03;5000174;28;20041;-69
2023/07/11 07:12:01;;;;;;;4.03;1.10;;;;;;;29.31;28.08;98623.53;4999898;28;20148;-69
2023/07/11 07:14:27;;;;;;;5.50;1.02;;;;;;;29.04;28.16;98614.47;5000184;28;20082;-69
2023/07/11 07:16:52;;;;;;;2.70;0.80;;;;;;;28.95;28.19;98613.53;5000216;28;20041;-69
2023/07/11 07:19:20;;;;;;;3.45;0.93;;;;;;;28.89;28.60;98607.34;5035545;28;20551;-70
2023/07/11 07:21:47;;;;;;;8.18;1.23;;;;;;;29.03;28.58;98608.19;5073591;28;20051;-69
2023/07/11 07:24:14;;;;;;;3.38;1.00;;;;;;;29.23;28.44;98602.34;5057195;28;20047;-69
2023/07/11 07:26:41;;;;;;;2.40;0.85;;;;;;;29.20;28.19;98610.38;5057419;28;20479;-69
2023/07/11 07:29:09;;;;;;;3.22;0.95;;;;;;;29.53;27.78;98596.28;5040711;28;20131;-70
2023/07/11 07:31:38;;;;;;;4.53;1.20;;;;;;;29.43;28.11;98610.16;5093881;28;20047;-69
2023/07/11 07:34:04;;;;;;;2.67;1.05;;;;;;;29.43;28.17;98606.63;5044086;28;20048;-69
2023/07/11 07:36:31;;;;;;;2.83;1.38;;;;;;;29.48;27.77;98604.56;5044152;28;20048;-69
2023/07/11 07:38:57;;;;;;;5.47;1.00;;;;;;;29.44;28.00;98600.84;5044135;28;20485;-69
2023/07/11 07:41:25;;;;;;;10.00;1.00;;;;;;;29.87;27.82;98603.22;5044268;28;20048;-69
2023/07/11 07:43:52;;;;;;;5.07;1.42;;;;;;;29.95;27.14;98594.28;5060598;28;20467;-69
2023/07/11 07:46:19;;;;;;;5.60;1.15;;;;;;;30.20;26.80;98596.47;5044236;28;20108;-69
2023/07/11 07:48:45;;;;;;;6.95;1.10;;;;;;;30.39;26.60;98591.59;5060556;28;20063;-69
2023/07/11 07:51:15;;;;;;;2.28;1.00;;;;;;;30.53;26.24;98584.13;5060712;28;20047;-69
2023/07/11 07:53:42;;;;;;;1.73;1.00;;;;;;;30.25;26.48;98590.84;5077218;28;20090;-69
2023/07/11 07:56:20;;;;;;;4.18;1.08;;;;;;;30.57;26.57;98598.81;5043752;28;20541;-69
2023/07/11 07:58:48;;;;;;;4.45;0.90;;;;;;;30.22;26.81;98594.22;5079688;28;20506;-72
2023/07/11 08:01:16;;;;;;;4.82;1.10;;;;;;;30.21;26.94;98600.81;5079765;28;20146;-69
2023/07/11 08:03:44;;;;;;;2.55;0.90;;;;;;;29.85;27.17;98603.53;5046820;28;20573;-69
2023/07/11 08:06:13;;;;;;;3.92;1.10;;;;;;;29.94;27.10;98593.47;5019224;28;20053;-69
2023/07/11 08:08:39;;;;;;;6.65;1.13;;;;;;;29.81;27.01;98597.06;5019298;28;20060;-69
2023/07/11 08:11:07;;;;;;;3.10;1.10;;;;;;;30.01;27.36;98596.59;5035735;28;20061;-69
2023/07/11 08:13:35;;;;;;;3.05;1.02;;;;;;;29.86;27.29;98593.41;4999718;28;20056;-69
2023/07/11 08:16:01;;;;;;;8.65;1.40;;;;;;;29.89;27.11;98601.81;5015999;28;20145;-69
2023/07/11 08:18:28;;;;;;;2.15;1.20;;;;;;;29.97;27.23;98592.06;4999635;28;20045;-69
2023/07/11 08:20:56;;;;;;;5.45;1.00;;;;;;;29.73;27.18;98581.34;5032153;28;20109;-69
2023/07/11 08:23:24;;;;;;;3.20;1.00;;;;;;;30.02;27.11;98603.69;5015962;28;20046;-69
2023/07/11 08:25:52;;;;;;;1.42;1.20;;;;;;;30.07;27.00;98603.59;4980040;28;20065;-69
2023/07/11 08:28:19;;;;;;;4.30;1.05;;;;;;;30.25;26.63;98612.75;4995970;28;20436;-69
2023/07/11 08:30:46;;;;;;;3.97;1.30;;;;;;;30.06;26.80;98609.38;4978083;28;20058;-72
2023/07/11 08:33:14;;;;;;;4.32;1.30;;;;;;;30.10;26.60;98613.09;4976188;28;20062;-70
2023/07/11 08:35:40;;;;;;;3.10;1.20;;;;;;;30.34;26.20;98599.94;4960231;28;20057;-71
2023/07/11 08:38:11;;;;;;;4.43;1.08;;;;;;;30.77;26.41;98623.00;4978432;28;20053;-71
2023/07/11 08:40:45;;;;;;;3.08;1.30;;;;;;;31.07;25.71;98612.06;4980473;28;20061;-71
2023/07/11 08:43:23;;;;;;;7.00;1.20;;;;;;;31.34;25.25;98608.31;4994893;28;20464;-72
2023/07/11 08:45:59;;;;;;;2.35;0.93;;;;;;;31.79;24.87;98617.16;5003005;28;20044;-71
2023/07/11 08:48:35;;;;;;;5.30;1.05;;;;;;;32.20;24.02;98603.78;5035147;28;20439;-72
2023/07/11 08:51:33;;;;;;;3.33;1.05;;;;;;;32.45;23.77;98614.00;5051117;28;20061;-71
2023/07/11 08:54:17;;;;;;;3.50;1.00;;;;;;;32.45;23.71;98620.31;5034293;28;20138;-72
2023/07/11 08:56:46;;;;;;;2.70;1.10;;;;;;;32.18;24.43;98615.09;5001901;28;20052;-71
2023/07/11 08:59:14;;;;;;;4.75;1.02;;;;;;;32.09;24.23;98608.81;5018829;28;20049;-71
2023/07/11 09:01:56;;;;;;;6.68;1.20;;;;;;;32.57;23.78;98605.91;4986087;28;20049;-71
2023/07/11 09:04:23;;;;;;;3.72;1.00;;;;;;;33.43;22.70;98610.03;5034293;28;20068;-71
2023/07/11 09:07:04;;;;;;;3.70;1.00;;;;;;;35.37;20.87;98610.69;5001814;28;20064;-70
2023/07/11 09:09:32;;;;;;;;;;;;;;;37.77;18.36;98602.56;5018235;28;20136;-70
2023/07/11 09:12:13;;;;;;;1.08;0.70;;;;;;;40.60;15.57;98601.66;5028495;28;19921;-71
2023/07/11 09:14:58;;;;;;;3.28;0.88;;;;;;;41.99;14.06;98593.03;4996478;28;20139;-71
2023/07/11 09:17:35;;;;;;;1.98;0.70;;;;;;;41.29;14.27;98589.69;5012498;28;20041;-71
2023/07/11 09:20:29;;;;;;;3.22;0.70;;;;;;;40.42;14.69;98600.66;5011614;28;20091;-71
2023/07/11 09:23:14;;;;;;;2.70;0.95;;;;;;;39.01;15.66;98601.25;5018911;28;20045;-70
2023/07/11 09:25:42;;;;;;;5.28;0.98;;;;;;;37.85;16.83;98595.19;5002248;28;20043;-71
2023/07/11 09:28:23;;;;;;;4.88;1.27;;;;;;;36.87;17.48;98580.47;5042454;28;20050;-70
2023/07/11 09:31:00;;;;;;;4.13;0.90;;;;;;;36.44;18.15;98577.69;5026050;28;20032;-70
2023/07/11 09:33:54;;;;;;;3.05;0.80;;;;;;;36.07;18.62;98583.69;5075134;28;20052;-70
2023/07/11 09:36:24;;;;;;;4.22;1.33;;;;;;;35.63;19.04;98575.22;5056349;28;20396;-70
2023/07/11 09:39:10;;;;;;;4.67;1.70;;;;;;;35.42;19.64;98579.25;5024565;28;20040;-70
2023/07/11 09:41:42;;;;;;;1.60;1.10;;;;;;;35.26;19.92;98584.63;5024527;28;20044;-70
2023/07/11 09:44:10;;;;;;;4.35;1.08;;;;;;;35.32;19.73;98574.97;5040637;28;20048;-70
2023/07/11 09:46:36;;;;;;;3.13;0.95;;;;;;;35.63;18.90;98566.94;5023898;28;20054;-70
2023/07/11 09:49:06;;;;;;;2.75;1.00;;;;;;;38.43;16.54;98578.25;5024665;28;20052;-70
2023/07/11 09:51:48;;;;;;;4.63;1.20;;;;;;;41.73;13.95;98587.66;5027260;28;20056;-70
2023/07/11 09:54:19;;;;;;;3.10;0.90;;;;;;;43.10;12.82;98589.06;5054780;28;20065;-70
2023/07/11 09:56:47;;;;;;;4.97;1.10;;;;;;;43.14;12.39;98575.91;5054383;28;20381;-71
2023/07/11 09:59:16;;;;;;;3.13;0.73;;;;;;;42.59;12.55;98574.56;5054703;28;20137;-70
2023/07/11 10:01:42;;;;;;;4.05;0.80;;;;;;;41.75;13.45;98566.56;5054485;28;20048;-70
2023/07/11 10:04:15;;;;;;;4.65;1.40;;;;;;;40.71;14.29;98569.19;5054327;28;20043;-70
2023/07/11 10:06:44;;;;;;;2.45;0.70;;;;;;;39.82;14.92;98574.78;5021678;28;20044;-70
2023/07/11 10:09:17;;;;;;;8.90;1.00;;;;;;;39.78;15.01;98571.94;5037673;28;20047;-70
2023/07/11 10:11:59;;;;;;;7.93;1.05;;;;;;;39.82;15.09;98575.59;5054448;28;20037;-70
2023/07/11 10:14:39;;;;;;;5.32;1.20;;;;;;;39.23;15.42;98582.97;5037589;28;20104;-70
2023/07/11 10:17:34;;;;;;;5.10;1.20;;;;;;;38.51;15.67;98584.75;5054316;28;20048;-70
2023/07/11 10:20:03;;;;;;;1.77;0.90;;;;;;;37.93;16.56;98586.69;5054257;28;20044;-70
2023/07/11 10:22:31;;;;;;;3.30;0.95;;;;;;;37.55;16.90;98578.25;5038312;28;20111;-70
2023/07/11 10:25:03;;;;;;;5.68;1.05;;;;;;;37.32;17.34;98593.13;5036772;28;20059;-70
2023/07/11 10:27:33;;;;;;;3.13;1.00;;;;;;;36.90;17.30;98587.28;5036834;28;20495;-71
2023/07/11 10:30:01;;;;;;;8.27;1.20;;;;;;;36.52;17.98;98581.47;5036615;28;20175;-71
2023/07/11 10:32:41;;;;;;;1.40;1.13;;;;;;;36.23;18.13;98579.03;5021389;28;20052;-70
2023/07/11 10:35:15;;;;;;;2.83;1.02;;;;;;;35.87;18.77;98581.88;5036902;28;20052;-70
2023/07/11 10:37:49;;;;;;;6.20;0.90;;;;;;;35.36;19.17;98580.66;5020499;28;20095;-70
2023/07/11 10:40:24;;;;;;;4.18;0.95;;;;;;;34.95;19.46;98589.09;5036679;28;20044;-70
2023/07/11 10:42:59;;;;;;;7.68;1.20;;;;;;;34.75;19.59;98585.22;5053480;28;20063;-70
2023/07/11 10:45:27;;;;;;;7.63;1.20;;;;;;;34.43;20.12;98580.50;5053352;28;20041;-69
2023/07/11 10:48:11;;;;;;;2.88;0.95;;;;;;;34.54;20.55;98573.44;5036870;28;20617;-69
2023/07/11 10:50:48;;;;;;;5.35;1.13;;;;;;;35.03;19.92;98590.97;5053118;28;20056;-70
2023/07/11 10:53:25;;;;;;;4.20;1.10;;;;;;;35.38;19.55;98583.88;5036858;28;20044;-71
2023/07/11 10:56:17;;;;;;;4.20;1.00;;;;;;;35.44;19.80;98590.78;5045825;28;20489;-70
2023/07/11 10:58:43;;;;;;;1.50;0.95;;;;;;;35.64;19.19;98596.16;5034928;28;20134;-70
2023/07/11 11:01:31;;;;;;;1.60;0.75;;;;;;;36.30;18.64;98601.38;5023202;28;20052;-70
2023/07/11 11:04:40;;;;;;;3.08;0.82;;;;;;;36.99;17.58;98596.22;5054253;28;20044;-71
2023/07/11 11:07:31;;;;;;;3.45;0.85;;;;;;;37.91;16.95;98594.56;5041617;28;20059;-70
2023/07/11 11:10:04;;;;;;;3.28;1.10;;;;;;;38.90;16.27;98591.88;5077359;28;20047;-70
2023/07/11 11:12:47;;;;;;;5.15;1.10;;;;;;;39.40;15.16;98596.31;5078421;28;20127;-70
2023/07/11 11:15:28;;;;;;;6.57;0.85;;;;;;;39.59;15.19;98601.84;5059754;28;20058;-70
2023/07/11 11:18:17;;;;;;;3.88;1.05;;;;;;;39.58;14.76;98587.13;5043316;28;20047;-70
2023/07/11 11:21:15;;;;;;;2.35;0.88;;;;;;;39.33;15.00;98593.44;5059711;28;20066;-70
2023/07/11 11:24:00;;;;;;;4.50;1.33;;;;;;;38.81;15.24;98596.06;5034794;28;20189;-69
2023/07/11 11:26:51;;;;;;;3.97;1.00;;;;;;;38.24;16.29;98583.03;5043368;28;20040;-70
2023/07/11 11:29:37;;;;;;;9.40;1.33;;;;;;;37.47;16.67;98587.56;5043073;28;20165;-70
2023/07/11 11:32:08;;;;;;;4.15;1.00;;;;;;;37.02;17.40;98585.22;5043662;28;20089;-70
2023/07/11 11:35:09;;;;;;;3.03;1.05;;;;;;;36.86;17.39;98573.34;5045119;28;20486;-70
2023/07/11 11:37:35;;;;;;;3.42;1.00;;;;;;;36.44;17.57;98583.22;5048883;28;20075;-70
2023/07/11 11:40:27;;;;;;;2.88;1.20;;;;;;;36.06;17.56;98584.84;5057796;28;20040;-71
2023/07/11 11:43:00;;;;;;;2.95;1.10;;;;;;;35.59;19.02;98603.88;5054558;28;20084;-70
2023/07/11 11:45:28;;;;;;;17.08;1.85;;;;;;;34.61;21.44;98609.56;5057565;28;20366;-70
2023/07/11 11:47:56;;;;;;;10.90;2.10;;;;;;;33.93;24.05;98599.06;5040480;28;20048;-70
2023/07/11 11:50:24;;;;;;;2.88;1.45;;;;;;;33.31;24.51;98600.84;5073898;28;20353;-69